createdAt,value
2017-08-23T00:01:07.849Z,12.37
2017-08-23T00:03:35.471Z,12.93
2017-08-23T00:06:03.029Z,14.20
2017-08-23T00:08:30.551Z,12.83
2017-08-23T00:10:58.143Z,13.77
2017-08-23T00:13:25.665Z,12.27
2017-08-23T00:15:53.189Z,12.20
2017-08-23T00:18:20.826Z,14.20
2017-08-23T00:20:48.423Z,14.80
2017-08-23T00:23:16.725Z,14.10
2017-08-23T00:25:44.354Z,18.40
2017-08-23T00:28:11.887Z,14.07
2017-08-23T00:30:39.422Z,14.90
2017-08-23T00:33:07.008Z,13.77
2017-08-23T00:35:34.535Z,14.33
2017-08-23T00:38:02.121Z,14.37
2017-08-23T00:40:29.678Z,14.90
2017-08-23T00:42:57.207Z,13.63
2017-08-23T00:45:24.804Z,15.77
2017-08-23T00:47:52.458Z,14.33
2017-08-23T00:50:20.061Z,13.43
2017-08-23T00:52:47.690Z,15.70
2017-08-23T00:55:15.337Z,15.90
2017-08-23T00:57:42.866Z,15.67
2017-08-23T01:00:10.393Z,15.07
2017-08-23T01:02:38.021Z,15.37
2017-08-23T01:05:05.537Z,16.33
2017-08-23T01:07:33.153Z,14.30
2017-08-23T01:10:00.695Z,15.60
2017-08-23T01:12:28.225Z,14.20
2017-08-23T01:14:55.757Z,14.30
2017-08-23T01:17:23.305Z,14.10
2017-08-23T01:19:50.842Z,14.97
2017-08-23T01:22:18.371Z,12.80
2017-08-23T01:24:45.921Z,14.47
2017-08-23T01:27:14.208Z,13.60
2017-08-23T01:29:41.793Z,14.30
2017-08-23T01:32:10.285Z,17.00
2017-08-23T01:34:37.818Z,15.50
2017-08-23T01:37:05.346Z,14.40
2017-08-23T01:39:32.890Z,16.00
2017-08-23T01:42:00.434Z,16.17
2017-08-23T01:44:27.974Z,16.40
2017-08-23T01:46:55.522Z,15.57
2017-08-23T01:49:23.094Z,15.70
2017-08-23T01:51:50.658Z,16.07
2017-08-23T01:54:18.201Z,16.90
2017-08-23T01:56:45.773Z,17.33
2017-08-23T01:59:13.329Z,16.23
2017-08-23T02:01:40.870Z,16.67
2017-08-23T02:04:08.484Z,17.13
2017-08-23T02:06:36.121Z,17.70
2017-08-23T02:09:03.657Z,17.63
2017-08-23T02:11:31.185Z,16.83
2017-08-23T02:13:58.805Z,17.47
2017-08-23T02:16:26.457Z,17.13
2017-08-23T02:18:53.981Z,18.00
2017-08-23T02:21:21.508Z,17.80
2017-08-23T02:23:49.054Z,17.40
2017-08-23T02:26:16.595Z,18.83
2017-08-23T02:28:44.143Z,18.20
2017-08-23T02:31:11.698Z,18.57
2017-08-23T02:33:39.278Z,17.30
2017-08-23T02:36:06.839Z,17.37
2017-08-23T02:38:34.490Z,17.07
2017-08-23T02:41:02.015Z,16.03
2017-08-23T02:43:29.550Z,14.87
2017-08-23T02:45:57.210Z,15.77
2017-08-23T02:48:24.736Z,14.40
2017-08-23T02:50:52.294Z,13.60
2017-08-23T02:53:19.838Z,13.93
2017-08-23T02:55:47.418Z,13.87
2017-08-23T02:58:14.946Z,13.10
2017-08-23T03:00:42.485Z,15.00
2017-08-23T03:03:10.101Z,15.80
2017-08-23T03:05:37.613Z,14.53
2017-08-23T03:08:05.145Z,15.70
2017-08-23T03:10:32.773Z,14.70
2017-08-23T03:13:00.327Z,15.53
2017-08-23T03:15:28.646Z,15.23
2017-08-23T03:17:56.278Z,16.37
2017-08-23T03:20:23.929Z,15.70
2017-08-23T03:22:51.465Z,16.67
2017-08-23T03:25:18.981Z,16.10
2017-08-23T03:27:46.507Z,17.93
2017-08-23T03:30:14.170Z,18.20
2017-08-23T03:32:41.732Z,20.63
2017-08-23T03:35:09.293Z,18.13
2017-08-23T03:37:36.828Z,16.23
2017-08-23T03:40:04.409Z,20.20
2017-08-23T03:42:31.934Z,16.10
2017-08-23T03:45:00.348Z,16.50
2017-08-23T03:47:27.864Z,15.53
2017-08-23T03:49:55.474Z,38.47
2017-08-23T03:52:23.023Z,29.67
2017-08-23T03:54:50.546Z,18.73
2017-08-23T03:57:18.978Z,16.60
2017-08-23T03:59:46.526Z,15.87
2017-08-23T04:02:14.086Z,16.93
2017-08-23T04:04:41.610Z,19.10
2017-08-23T04:07:09.913Z,16.10
2017-08-23T04:09:37.454Z,15.80
2017-08-23T04:12:05.047Z,17.23
2017-08-23T04:14:32.581Z,16.90
2017-08-23T04:17:00.165Z,16.20
2017-08-23T04:19:27.719Z,16.00
2017-08-23T04:21:55.261Z,15.60
2017-08-23T04:24:22.773Z,15.53
2017-08-23T04:26:50.403Z,16.20
2017-08-23T04:29:17.957Z,15.23
2017-08-23T04:31:45.478Z,16.80
2017-08-23T04:34:13.008Z,18.67
2017-08-23T04:36:40.553Z,19.13
2017-08-23T04:39:08.072Z,17.90
2017-08-23T04:41:35.661Z,19.73
2017-08-23T04:44:03.223Z,20.93
2017-08-23T04:46:30.778Z,21.70
2017-08-23T04:48:58.308Z,19.43
2017-08-23T04:51:25.851Z,19.73
2017-08-23T04:53:54.151Z,19.97
2017-08-23T04:56:21.734Z,19.17
2017-08-23T04:58:49.270Z,20.07
2017-08-23T05:01:16.788Z,19.70
2017-08-23T05:03:44.306Z,19.93
2017-08-23T05:06:11.872Z,20.77
2017-08-23T05:08:39.429Z,21.27
2017-08-23T05:11:06.945Z,19.57
2017-08-23T05:13:34.485Z,20.40
2017-08-23T05:16:02.010Z,19.30
2017-08-23T05:18:29.572Z,19.10
2017-08-23T05:20:57.113Z,19.03
2017-08-23T05:23:24.695Z,18.60
2017-08-23T05:25:52.255Z,19.30
2017-08-23T05:28:19.807Z,19.23
2017-08-23T05:30:47.333Z,22.93
2017-08-23T05:33:14.857Z,19.87
2017-08-23T05:35:42.503Z,22.23
2017-08-23T05:38:10.050Z,19.43
2017-08-23T05:40:37.574Z,18.30
2017-08-23T05:43:05.168Z,17.77
2017-08-23T05:45:32.694Z,21.50
2017-08-23T05:48:00.212Z,18.30
2017-08-23T05:50:27.758Z,18.47
2017-08-23T05:52:55.293Z,18.23
2017-08-23T05:55:22.817Z,17.37
2017-08-23T05:57:50.393Z,16.50
2017-08-23T06:00:17.916Z,17.00
2017-08-23T06:02:45.446Z,15.30
2017-08-23T06:05:12.994Z,17.00
2017-08-23T06:07:40.522Z,15.47
2017-08-23T06:10:09.361Z,14.53
2017-08-23T06:12:36.990Z,14.40
2017-08-23T06:15:04.585Z,13.27
2017-08-23T06:17:32.137Z,12.73
2017-08-23T06:19:59.693Z,13.40
2017-08-23T06:22:27.222Z,13.33
2017-08-23T06:24:54.765Z,13.43
2017-08-23T06:27:22.309Z,15.30
2017-08-23T06:29:49.933Z,13.53
2017-08-23T06:32:17.497Z,12.83
2017-08-23T06:34:45.119Z,10.80
2017-08-23T06:37:12.641Z,12.13
2017-08-23T06:39:40.165Z,11.33
2017-08-23T06:42:07.740Z,11.10
2017-08-23T06:44:35.261Z,10.50
2017-08-23T06:47:02.780Z,10.60
2017-08-23T06:49:30.316Z,10.70
2017-08-23T06:51:57.874Z,10.93
2017-08-23T06:54:25.392Z,12.00
2017-08-23T06:56:52.931Z,11.70
2017-08-23T06:59:21.165Z,10.93
2017-08-23T07:01:48.730Z,12.20
2017-08-23T07:04:16.286Z,11.70
2017-08-23T07:06:43.810Z,11.20
2017-08-23T07:09:11.402Z,11.20
2017-08-23T07:11:38.985Z,10.27
2017-08-23T07:14:07.514Z,10.20
2017-08-23T07:16:35.045Z,9.90
2017-08-23T07:19:02.579Z,9.20
2017-08-23T07:21:30.103Z,9.00
2017-08-23T07:23:57.621Z,10.03
2017-08-23T07:26:25.236Z,10.83
2017-08-23T07:28:52.753Z,9.90
2017-08-23T07:31:20.277Z,10.70
2017-08-23T07:33:47.811Z,9.17
2017-08-23T07:36:15.325Z,10.73
2017-08-23T07:38:42.941Z,10.10
2017-08-23T07:41:10.501Z,8.60
2017-08-23T07:43:38.023Z,8.97
2017-08-23T07:46:05.623Z,9.37
2017-08-23T07:48:33.546Z,10.57
2017-08-23T07:51:01.866Z,9.60
2017-08-23T07:53:29.420Z,10.63
2017-08-23T07:55:56.983Z,11.03
2017-08-23T07:58:24.504Z,10.60
2017-08-23T08:00:52.809Z,10.60
2017-08-23T08:03:20.350Z,10.00
2017-08-23T08:05:47.878Z,9.83
2017-08-23T08:08:15.422Z,11.60
2017-08-23T08:10:42.960Z,11.40
2017-08-23T08:13:10.518Z,11.33
2017-08-23T08:15:38.075Z,11.80
2017-08-23T08:18:05.634Z,12.77
2017-08-23T08:20:33.226Z,11.77
2017-08-23T08:23:00.750Z,12.97
2017-08-23T08:25:28.625Z,12.50
2017-08-23T08:27:56.152Z,13.40
2017-08-23T08:30:23.681Z,12.03
2017-08-23T08:32:51.305Z,13.37
2017-08-23T08:35:18.825Z,11.23
2017-08-23T08:37:46.345Z,12.57
2017-08-23T08:40:13.987Z,13.90
2017-08-23T08:42:41.516Z,12.50
2017-08-23T08:45:09.045Z,13.00
2017-08-23T08:47:36.657Z,12.63
2017-08-23T08:50:04.228Z,12.20
2017-08-23T08:52:31.767Z,12.57
2017-08-23T08:54:59.329Z,14.80
2017-08-23T08:57:26.893Z,13.03
2017-08-23T08:59:54.423Z,12.57
2017-08-23T09:02:22.014Z,12.83
2017-08-23T09:04:49.544Z,11.87
2017-08-23T09:07:17.083Z,12.60
2017-08-23T09:09:44.628Z,12.50
2017-08-23T09:12:12.258Z,10.60
2017-08-23T09:14:39.786Z,13.70
2017-08-23T09:17:07.366Z,11.57
2017-08-23T09:19:34.898Z,12.73
2017-08-23T09:22:02.510Z,12.30
2017-08-23T09:24:30.049Z,10.83
2017-08-23T09:26:57.573Z,12.50
2017-08-23T09:29:25.093Z,12.13
2017-08-23T09:31:52.665Z,12.50
2017-08-23T09:34:20.198Z,12.73
2017-08-23T09:36:47.750Z,13.50
2017-08-23T09:39:15.281Z,10.77
2017-08-23T09:41:42.865Z,11.07
2017-08-23T09:44:10.401Z,13.23
2017-08-23T09:46:37.985Z,11.30
2017-08-23T09:49:05.517Z,12.10
2017-08-23T09:51:33.105Z,12.03
2017-08-23T09:54:00.645Z,11.67
2017-08-23T09:56:28.333Z,11.17
2017-08-23T09:58:55.863Z,10.13
2017-08-23T10:01:23.451Z,10.53
2017-08-23T10:03:51.004Z,9.83
2017-08-23T10:06:18.665Z,10.13
2017-08-23T10:08:47.148Z,10.17
2017-08-23T10:11:15.709Z,9.43
2017-08-23T10:13:43.234Z,8.67
2017-08-23T10:16:10.789Z,13.10
2017-08-23T10:18:38.410Z,8.63
2017-08-23T10:21:05.973Z,7.77
2017-08-23T10:23:33.514Z,8.87
2017-08-23T10:26:01.044Z,9.07
2017-08-23T10:28:28.769Z,7.57
2017-08-23T10:30:56.424Z,6.63
2017-08-23T10:33:23.950Z,7.10
2017-08-23T10:35:51.478Z,6.93
2017-08-23T10:38:19.094Z,7.37
2017-08-23T10:40:46.657Z,6.00
2017-08-23T10:43:14.205Z,8.03
2017-08-23T10:45:41.745Z,5.97
2017-08-23T10:48:09.281Z,5.50
2017-08-23T10:50:36.901Z,6.17
2017-08-23T10:53:04.449Z,8.80
2017-08-23T10:55:31.963Z,6.47
2017-08-23T10:57:59.483Z,6.37
2017-08-23T11:00:27.012Z,7.70
2017-08-23T11:02:54.531Z,6.83
2017-08-23T11:05:22.053Z,6.53
2017-08-23T11:07:49.603Z,6.20
2017-08-23T11:10:17.174Z,10.97
2017-08-23T11:12:44.908Z,4.60
2017-08-23T11:15:12.486Z,6.60
2017-08-23T11:17:40.011Z,9.90
2017-08-23T11:20:08.297Z,7.70
2017-08-23T11:22:35.886Z,5.67
2017-08-23T11:25:03.449Z,4.37
2017-08-23T11:27:31.028Z,7.00
2017-08-23T11:29:58.560Z,4.10
2017-08-23T11:32:26.073Z,7.83
2017-08-23T11:34:53.593Z,4.83
2017-08-23T11:37:21.209Z,3.90
2017-08-23T11:39:48.735Z,4.17
2017-08-23T11:42:16.250Z,4.33
2017-08-23T11:44:43.781Z,5.97
2017-08-23T11:47:11.375Z,5.83
2017-08-23T11:49:38.937Z,4.60
2017-08-23T11:52:06.469Z,4.00
2017-08-23T11:54:34.057Z,3.97
2017-08-23T11:57:01.580Z,4.03
2017-08-23T11:59:29.174Z,3.77
2017-08-23T12:01:56.705Z,3.83
2017-08-23T12:04:24.332Z,3.40
2017-08-23T12:06:51.866Z,6.30
2017-08-23T12:09:19.388Z,5.85
2017-08-23T12:11:46.922Z,4.97
2017-08-23T12:14:14.535Z,3.87
2017-08-23T12:16:42.102Z,5.18
2017-08-23T12:19:09.662Z,3.72
2017-08-23T12:21:37.206Z,4.03
2017-08-23T12:24:04.730Z,4.82
2017-08-23T12:26:32.454Z,4.10
2017-08-23T12:29:00.094Z,3.50
2017-08-23T12:31:27.617Z,5.50
2017-08-23T12:33:55.141Z,4.30
2017-08-23T12:36:22.681Z,4.75
2017-08-23T12:38:50.205Z,4.00
2017-08-23T12:41:17.722Z,4.18
2017-08-23T12:43:45.359Z,4.50
2017-08-23T12:46:12.913Z,4.45
2017-08-23T12:48:40.469Z,4.20
2017-08-23T12:51:08.001Z,4.68
2017-08-23T12:53:35.577Z,3.70
2017-08-23T12:56:03.153Z,4.15
2017-08-23T12:58:30.688Z,5.25
2017-08-23T13:00:58.371Z,4.63
2017-08-23T13:03:25.900Z,3.58
2017-08-23T13:05:53.432Z,3.80
2017-08-23T13:08:20.946Z,3.67
2017-08-23T13:10:48.508Z,4.30
2017-08-23T13:13:16.071Z,4.30
2017-08-23T13:15:43.628Z,3.90
2017-08-23T13:18:11.154Z,5.72
2017-08-23T13:20:38.853Z,2.72
2017-08-23T13:23:06.376Z,3.58
2017-08-23T13:25:33.902Z,4.90
2017-08-23T13:28:01.526Z,5.20
2017-08-23T13:30:29.090Z,3.40
2017-08-23T13:32:56.645Z,3.85
2017-08-23T13:35:24.206Z,3.20
2017-08-23T13:37:51.767Z,5.12
2017-08-23T13:40:19.295Z,4.28
2017-08-23T13:42:46.886Z,3.80
2017-08-23T13:45:14.449Z,3.37
2017-08-23T13:47:41.969Z,2.95
2017-08-23T13:50:09.561Z,2.62
2017-08-23T13:52:37.081Z,2.78
2017-08-23T13:55:04.787Z,3.30
2017-08-23T13:57:32.349Z,3.12
2017-08-23T13:59:59.906Z,3.35
2017-08-23T14:02:27.472Z,3.45
2017-08-23T14:04:55.137Z,2.85
2017-08-23T14:07:22.691Z,2.87
2017-08-23T14:09:50.215Z,3.67
2017-08-23T14:12:17.748Z,3.17
2017-08-23T14:14:45.284Z,3.30
2017-08-23T14:17:12.814Z,2.92
2017-08-23T14:19:40.388Z,3.15
2017-08-23T14:22:07.909Z,3.87
2017-08-23T14:24:35.822Z,3.62
2017-08-23T14:27:03.397Z,3.37
2017-08-23T14:29:30.937Z,3.37
2017-08-23T14:31:58.462Z,3.53
2017-08-23T14:34:26.005Z,3.08
2017-08-23T14:36:53.606Z,3.28
2017-08-23T14:39:21.134Z,3.45
2017-08-23T14:41:48.677Z,3.47
2017-08-23T14:44:16.206Z,3.30
2017-08-23T14:46:43.745Z,3.25
2017-08-23T14:49:11.309Z,3.53
2017-08-23T14:51:38.866Z,4.60
2017-08-23T14:54:06.381Z,3.72
2017-08-23T14:56:34.801Z,4.50
2017-08-23T14:59:02.317Z,4.32
2017-08-23T15:01:29.932Z,2.70
2017-08-23T15:03:57.474Z,3.17
2017-08-23T15:06:25.000Z,3.20
2017-08-23T15:08:52.526Z,2.65
2017-08-23T15:11:20.069Z,3.08
2017-08-23T15:13:47.620Z,3.22
2017-08-23T15:16:15.140Z,4.18
2017-08-23T15:18:42.741Z,3.60
2017-08-23T15:21:10.270Z,3.63
2017-08-23T15:23:37.862Z,4.20
2017-08-23T15:26:05.398Z,5.70
2017-08-23T15:28:32.926Z,6.50
2017-08-23T15:31:00.538Z,4.00
2017-08-23T15:33:28.078Z,5.90
2017-08-23T15:35:55.598Z,4.73
2017-08-23T15:38:23.118Z,5.73
2017-08-23T15:40:50.665Z,12.83
2017-08-23T15:43:18.185Z,6.40
2017-08-23T15:45:46.378Z,4.70
2017-08-23T15:48:13.973Z,5.13
2017-08-23T15:50:41.521Z,4.90
2017-08-23T15:53:09.413Z,12.00
2017-08-23T15:55:36.951Z,7.27
2017-08-23T15:58:04.517Z,6.30
2017-08-23T16:00:32.069Z,4.90
2017-08-23T16:02:59.611Z,7.40
2017-08-23T16:05:27.187Z,4.60
2017-08-23T16:07:54.749Z,3.93
2017-08-23T16:10:22.306Z,3.97
2017-08-23T16:12:49.973Z,4.43
2017-08-23T16:15:17.533Z,4.70
2017-08-23T16:17:45.076Z,4.97
2017-08-23T16:20:12.650Z,3.97
2017-08-23T16:22:40.206Z,4.77
2017-08-23T16:25:07.773Z,4.53
2017-08-23T16:27:35.341Z,9.70
2017-08-23T16:30:02.906Z,5.27
2017-08-23T16:32:30.546Z,4.63
2017-08-23T16:34:58.108Z,5.67
2017-08-23T16:37:25.674Z,9.60
2017-08-23T16:39:53.235Z,7.70
2017-08-23T16:42:20.758Z,7.17
2017-08-23T16:44:48.351Z,5.37
2017-08-23T16:47:15.894Z,5.27
2017-08-23T16:49:43.414Z,4.43
2017-08-23T16:52:10.930Z,5.00
2017-08-23T16:54:38.486Z,7.40
2017-08-23T16:57:06.046Z,6.60
2017-08-23T16:59:33.607Z,6.50
2017-08-23T17:02:01.164Z,4.57
2017-08-23T17:04:28.824Z,4.73
2017-08-23T17:06:57.209Z,9.00
2017-08-23T17:09:24.766Z,19.67
2017-08-23T17:11:52.285Z,7.23
2017-08-23T17:14:19.801Z,5.10
2017-08-23T17:16:47.548Z,5.07
2017-08-23T17:19:15.081Z,4.73
2017-08-23T17:21:43.289Z,6.40
2017-08-23T17:24:10.843Z,4.90
2017-08-23T17:26:38.845Z,4.60
2017-08-23T17:29:08.699Z,4.73
2017-08-23T17:31:36.249Z,3.63
2017-08-23T17:34:03.780Z,4.83
2017-08-23T17:36:31.498Z,4.30
2017-08-23T17:38:59.064Z,5.13
2017-08-23T17:41:26.594Z,4.07
2017-08-23T17:43:54.172Z,4.73
2017-08-23T17:46:22.060Z,4.77
2017-08-23T17:48:49.576Z,4.97
2017-08-23T17:51:17.178Z,4.43
2017-08-23T17:53:44.728Z,7.60
2017-08-23T17:56:12.295Z,4.73
2017-08-23T17:58:39.850Z,5.40
2017-08-23T18:01:07.394Z,5.17
2017-08-23T18:03:34.910Z,5.93
2017-08-23T18:06:02.430Z,7.77
2017-08-23T18:08:30.010Z,16.30
2017-08-23T18:10:57.529Z,5.97
2017-08-23T18:13:25.057Z,6.50
2017-08-23T18:15:53.305Z,5.40
2017-08-23T18:18:20.825Z,5.50
2017-08-23T18:20:48.521Z,10.17
2017-08-23T18:23:16.083Z,11.10
2017-08-23T18:25:43.637Z,7.20
2017-08-23T18:28:11.189Z,6.30
2017-08-23T18:30:38.767Z,6.27
2017-08-23T18:33:06.305Z,5.70
2017-08-23T18:35:33.909Z,11.53
2017-08-23T18:38:01.488Z,11.07
2017-08-23T18:40:29.061Z,11.07
2017-08-23T18:42:56.893Z,10.13
2017-08-23T18:45:25.242Z,6.47
2017-08-23T18:47:53.514Z,5.70
2017-08-23T18:50:21.266Z,6.40
2017-08-23T18:52:48.930Z,8.03
2017-08-23T18:55:16.462Z,8.10
2017-08-23T18:57:44.031Z,10.17
2017-08-23T19:00:11.632Z,8.20
2017-08-23T19:02:39.373Z,10.20
2017-08-23T19:05:07.038Z,8.80
2017-08-23T19:07:34.690Z,9.20
2017-08-23T19:10:02.239Z,9.50
2017-08-23T19:12:29.785Z,8.63
2017-08-23T19:14:57.422Z,8.53
2017-08-23T19:17:24.958Z,9.03
2017-08-23T19:19:52.500Z,8.47
2017-08-23T19:22:20.583Z,8.13
2017-08-23T19:24:48.256Z,7.80
2017-08-23T19:27:15.883Z,8.10
2017-08-23T19:29:44.055Z,7.90
2017-08-23T19:32:11.602Z,7.57
2017-08-23T19:34:39.393Z,6.70
2017-08-23T19:37:07.250Z,6.90
2017-08-23T19:39:34.960Z,7.23
2017-08-23T19:42:02.591Z,7.27
2017-08-23T19:44:30.238Z,7.90
2017-08-23T19:46:57.761Z,8.23
2017-08-23T19:49:25.367Z,9.37
2017-08-23T19:51:53.016Z,7.77
2017-08-23T19:54:20.576Z,7.50
2017-08-23T19:56:48.108Z,8.77
2017-08-23T19:59:15.702Z,7.17
2017-08-23T20:01:43.640Z,7.67
2017-08-23T20:04:11.212Z,8.00
2017-08-23T20:06:38.785Z,10.50
2017-08-23T20:09:06.350Z,12.20
2017-08-23T20:11:33.970Z,8.43
2017-08-23T20:14:01.548Z,9.97
2017-08-23T20:16:29.130Z,8.67
2017-08-23T20:18:56.689Z,9.20
2017-08-23T20:21:24.350Z,18.57
2017-08-23T20:23:51.896Z,16.07
2017-08-23T20:26:19.465Z,11.07
2017-08-23T20:28:47.017Z,10.23
2017-08-23T20:31:14.543Z,8.80
2017-08-23T20:33:42.329Z,11.00
2017-08-23T20:36:10.013Z,9.70
2017-08-23T20:38:37.541Z,10.47
2017-08-23T20:41:05.226Z,11.37
2017-08-23T20:43:33.032Z,10.10
2017-08-23T20:46:00.561Z,11.00
2017-08-23T20:48:28.124Z,11.37
2017-08-23T20:50:55.776Z,9.23
2017-08-23T20:53:23.342Z,10.03
2017-08-23T20:55:50.874Z,9.07
2017-08-23T20:58:18.466Z,10.33
2017-08-23T21:00:45.990Z,8.40
2017-08-23T21:03:13.575Z,8.87
2017-08-23T21:05:41.132Z,7.50
2017-08-23T21:08:09.314Z,7.90
2017-08-23T21:10:36.982Z,8.20
2017-08-23T21:13:04.534Z,7.90
2017-08-23T21:15:32.098Z,7.33
2017-08-23T21:17:59.627Z,8.23
2017-08-23T21:20:27.174Z,8.40
2017-08-23T21:22:55.526Z,7.70
2017-08-23T21:25:23.053Z,7.90
2017-08-23T21:27:50.591Z,8.47
2017-08-23T21:30:18.169Z,8.20
2017-08-23T21:32:46.305Z,7.90
2017-08-23T21:35:13.845Z,8.23
2017-08-23T21:37:41.461Z,8.30
2017-08-23T21:40:09.017Z,7.83
2017-08-23T21:42:36.574Z,8.57
2017-08-23T21:45:04.093Z,8.00
2017-08-23T21:47:31.635Z,8.60
2017-08-23T21:49:59.265Z,8.33
2017-08-23T21:52:26.816Z,9.50
2017-08-23T21:54:54.375Z,8.50
2017-08-23T21:57:21.908Z,8.20
2017-08-23T21:59:49.434Z,8.40
2017-08-23T22:02:17.062Z,9.10
2017-08-23T22:04:44.612Z,9.93
2017-08-23T22:07:12.126Z,9.00
2017-08-23T22:09:39.736Z,9.03
2017-08-23T22:12:07.270Z,8.03
2017-08-23T22:14:34.859Z,9.80
2017-08-23T22:17:02.418Z,9.23
2017-08-23T22:19:29.973Z,10.33
2017-08-23T22:21:57.492Z,10.70
2017-08-23T22:24:25.089Z,10.40
2017-08-23T22:26:52.631Z,9.70
2017-08-23T22:29:20.313Z,9.53
2017-08-23T22:31:47.873Z,10.10
2017-08-23T22:34:15.433Z,10.00
2017-08-23T22:36:42.957Z,10.10
2017-08-23T22:39:11.269Z,10.10
2017-08-23T22:41:38.829Z,10.40
2017-08-23T22:44:06.385Z,10.63
2017-08-23T22:46:33.917Z,11.40
2017-08-23T22:49:02.225Z,11.30
2017-08-23T22:51:29.758Z,11.23
2017-08-23T22:53:58.084Z,11.27
2017-08-23T22:56:25.731Z,11.37
2017-08-23T22:58:53.258Z,11.80
2017-08-23T23:01:20.788Z,12.50
2017-08-23T23:03:48.405Z,13.07
2017-08-23T23:06:15.966Z,11.10
2017-08-23T23:08:43.494Z,11.47
2017-08-23T23:11:11.086Z,13.13
2017-08-23T23:13:38.614Z,12.47
2017-08-23T23:16:06.209Z,12.77
2017-08-23T23:18:33.750Z,12.97
2017-08-23T23:21:01.322Z,12.80
2017-08-23T23:23:28.886Z,12.57
2017-08-23T23:25:56.539Z,13.50
2017-08-23T23:28:24.108Z,13.00
2017-08-23T23:30:51.638Z,11.77
2017-08-23T23:33:19.169Z,13.93
2017-08-23T23:35:46.693Z,13.67
2017-08-23T23:38:14.233Z,12.73
2017-08-23T23:40:41.769Z,12.83
2017-08-23T23:43:09.296Z,14.20
2017-08-23T23:45:36.931Z,12.13
2017-08-23T23:48:04.473Z,12.00
2017-08-23T23:50:32.037Z,13.13
2017-08-23T23:52:59.596Z,13.60
2017-08-23T23:55:27.152Z,11.97
2017-08-23T23:57:54.674Z,13.03
